Terminal Aerodrome Forecast
Issued by NWS

Home | Current Version | Previous Version | Text Only | Print | Product List | Glossary On
Versions: 1 2 3 4 5 6 7 8 9 10 11 12
000
FTUS45 KRIW 281700
TAFLND
TAF
KLND 281720Z 2818/2918 VRB06KT P6SM SCT080 BKN150 WS020/26030KT
     FM282100 32008KT P6SM VCSH SCT020 OVC040
     FM290300 02008KT 2SM -SN OVC018=

USA.gov is the U.S. government's official web portal to all federal, state and local government web resources and services.